createdAt,value
2023-05-21T00:01:26.035Z,97619.00
2023-05-21T00:03:53.894Z,97607.66
2023-05-21T00:06:23.256Z,97611.38
2023-05-21T00:08:50.721Z,97602.97
2023-05-21T00:11:17.935Z,97602.50
2023-05-21T00:13:45.321Z,97587.50
2023-05-21T00:16:12.595Z,97583.41
2023-05-21T00:18:39.839Z,97591.00
2023-05-21T00:21:07.559Z,97598.84
2023-05-21T00:23:37.698Z,97602.44
2023-05-21T00:26:04.988Z,97587.69
2023-05-21T00:28:32.380Z,97586.53
2023-05-21T00:30:59.703Z,97590.88
2023-05-21T00:33:29.021Z,97587.63
2023-05-21T00:35:56.733Z,97590.47
2023-05-21T00:38:24.091Z,97589.56
2023-05-21T00:40:51.340Z,97591.97
2023-05-21T00:43:18.527Z,97585.59
2023-05-21T00:45:47.408Z,97578.94
2023-05-21T00:48:14.745Z,97584.22
2023-05-21T00:50:42.721Z,97578.63
2023-05-21T00:53:10.989Z,97577.25
2023-05-21T00:55:38.618Z,97576.53
2023-05-21T00:58:06.955Z,97574.34
2023-05-21T01:00:35.830Z,97568.47
2023-05-21T01:03:04.451Z,97570.91
2023-05-21T01:05:32.377Z,97567.66
2023-05-21T01:07:59.890Z,97565.44
2023-05-21T01:10:28.153Z,97566.25
2023-05-21T01:12:57.594Z,97577.25
2023-05-21T01:15:25.927Z,97566.91
2023-05-21T01:17:54.498Z,97569.69
2023-05-21T01:20:24.232Z,97558.91
2023-05-21T01:22:56.037Z,97555.47
2023-05-21T01:25:25.053Z,97564.28
2023-05-21T01:27:52.263Z,97571.78
2023-05-21T01:30:21.138Z,97564.28
2023-05-21T01:32:56.882Z,97565.84
2023-05-21T01:35:29.546Z,97559.81
2023-05-21T01:38:11.985Z,97560.03
2023-05-21T01:40:52.182Z,97557.53
2023-05-21T01:43:22.628Z,97548.38
2023-05-21T01:45:54.069Z,97550.63
2023-05-21T01:48:23.760Z,97540.16
2023-05-21T01:50:52.860Z,97548.69
2023-05-21T01:53:20.917Z,97547.75
2023-05-21T01:55:48.430Z,97540.13
2023-05-21T01:58:15.885Z,97537.63
2023-05-21T02:00:45.394Z,97537.22
2023-05-21T02:03:16.466Z,97542.97
2023-05-21T02:05:44.098Z,97537.03
2023-05-21T02:08:12.773Z,97540.63
2023-05-21T02:10:39.902Z,97546.59
2023-05-21T02:13:07.166Z,97548.50
2023-05-21T02:15:34.939Z,97547.75
2023-05-21T02:18:02.543Z,97554.09
2023-05-21T02:20:30.876Z,97546.53
2023-05-21T02:22:58.128Z,97545.69
2023-05-21T02:25:25.424Z,97545.81
2023-05-21T02:27:53.884Z,97540.53
2023-05-21T02:30:21.307Z,97535.38
2023-05-21T02:32:49.784Z,97543.31
2023-05-21T02:35:17.068Z,97539.94
2023-05-21T02:37:44.615Z,97545.16
2023-05-21T02:40:12.804Z,97531.84
2023-05-21T02:42:41.377Z,97538.78
2023-05-21T02:45:13.573Z,97546.59
2023-05-21T02:47:43.257Z,97543.91
2023-05-21T02:50:10.733Z,97543.66
2023-05-21T02:52:44.755Z,97536.63
2023-05-21T02:55:12.034Z,97542.69
2023-05-21T02:57:39.479Z,97532.03
2023-05-21T03:00:09.672Z,97532.28
2023-05-21T03:02:38.998Z,97532.91
2023-05-21T03:05:06.909Z,97534.47
2023-05-21T03:07:34.258Z,97532.50
2023-05-21T03:10:01.974Z,97526.78
2023-05-21T03:12:29.175Z,97519.66
2023-05-21T03:14:56.529Z,97526.03
2023-05-21T03:17:23.926Z,97523.59
2023-05-21T03:19:51.943Z,97531.78
2023-05-21T03:22:19.995Z,97528.44
2023-05-21T03:24:47.339Z,97523.38
2023-05-21T03:27:15.412Z,97524.47
2023-05-21T03:29:44.593Z,97535.41
2023-05-21T03:32:13.658Z,97533.78
2023-05-21T03:34:42.138Z,97531.03
2023-05-21T03:37:09.341Z,97530.13
2023-05-21T03:39:37.040Z,97534.41
2023-05-21T03:42:06.196Z,97534.78
2023-05-21T03:44:42.622Z,97522.72
2023-05-21T03:47:29.792Z,97529.00
2023-05-21T03:49:57.593Z,97525.88
2023-05-21T03:52:24.849Z,97532.91
2023-05-21T03:54:52.030Z,97538.44
2023-05-21T03:57:19.427Z,97533.31
2023-05-21T03:59:48.138Z,97535.41
2023-05-21T04:02:15.904Z,97526.16
2023-05-21T04:04:44.346Z,97533.91
2023-05-21T04:07:14.633Z,97526.31
2023-05-21T04:09:42.090Z,97528.38
2023-05-21T04:12:09.289Z,97537.09
2023-05-21T04:14:37.922Z,97533.13
2023-05-21T04:17:05.355Z,97534.31
2023-05-21T04:19:33.005Z,97532.91
2023-05-21T04:22:00.941Z,97535.66
2023-05-21T04:24:28.142Z,97545.75
2023-05-21T04:27:13.880Z,97541.19
2023-05-21T04:29:42.636Z,97547.41
2023-05-21T04:32:09.995Z,97544.66
2023-05-21T04:34:37.738Z,97547.50
2023-05-21T04:37:04.903Z,97541.81
2023-05-21T04:39:32.215Z,97557.97
2023-05-21T04:41:59.387Z,97549.56
2023-05-21T04:44:26.822Z,97552.38
2023-05-21T04:46:54.825Z,97543.44
2023-05-21T04:49:22.609Z,97544.38
2023-05-21T04:51:49.825Z,97540.38
2023-05-21T04:54:17.114Z,97548.81
2023-05-21T04:56:44.472Z,97541.88
2023-05-21T04:59:11.759Z,97548.81
2023-05-21T05:01:39.208Z,97537.91
2023-05-21T05:04:06.581Z,97549.13
2023-05-21T05:06:33.869Z,97551.25
2023-05-21T05:09:01.223Z,97545.09
2023-05-21T05:11:28.520Z,97547.16
2023-05-21T05:13:56.158Z,97550.47
2023-05-21T05:16:25.764Z,97550.91
2023-05-21T05:18:56.385Z,97559.56
2023-05-21T05:21:24.048Z,97545.72
2023-05-21T05:23:51.452Z,97541.34
2023-05-21T05:26:22.179Z,97542.16
2023-05-21T05:28:49.935Z,97552.13
2023-05-21T05:31:17.222Z,97546.63
2023-05-21T05:33:44.847Z,97544.34
2023-05-21T05:36:12.642Z,97549.44
2023-05-21T05:38:40.129Z,97544.41
2023-05-21T05:41:07.402Z,97546.56
2023-05-21T05:43:34.823Z,97548.50
2023-05-21T05:46:02.121Z,97549.38
2023-05-21T05:48:29.368Z,97551.03
2023-05-21T05:50:58.080Z,97553.06
2023-05-21T05:53:26.713Z,97543.00
2023-05-21T05:55:54.550Z,97544.75
2023-05-21T05:58:21.683Z,97543.94
2023-05-21T06:00:58.464Z,97543.28
2023-05-21T06:03:28.735Z,97540.13
2023-05-21T06:05:57.274Z,97547.53
2023-05-21T06:08:26.692Z,97538.63
2023-05-21T06:10:53.879Z,97548.38
2023-05-21T06:13:21.086Z,97541.31
2023-05-21T06:15:48.295Z,97550.19
2023-05-21T06:18:15.792Z,97542.28
2023-05-21T06:20:43.079Z,97544.72
2023-05-21T06:23:10.286Z,97540.72
2023-05-21T06:25:37.958Z,97542.34
2023-05-21T06:28:05.753Z,97540.03
2023-05-21T06:30:34.240Z,97542.06
2023-05-21T06:33:01.621Z,97537.28
2023-05-21T06:35:28.946Z,97554.53
2023-05-21T06:37:56.168Z,97550.69
2023-05-21T06:40:23.362Z,97537.94
2023-05-21T06:42:56.035Z,97549.25
2023-05-21T06:45:41.944Z,97551.25
2023-05-21T06:48:22.366Z,97544.88
2023-05-21T06:50:49.667Z,97546.47
2023-05-21T06:53:18.572Z,97547.75
2023-05-21T06:55:46.014Z,97547.75
2023-05-21T06:58:22.683Z,97542.94
2023-05-21T07:00:50.077Z,97547.72
2023-05-21T07:03:17.881Z,97547.75
2023-05-21T07:05:45.193Z,97563.41
2023-05-21T07:08:12.471Z,97546.97
2023-05-21T07:10:40.034Z,97559.75
2023-05-21T07:13:08.039Z,97548.56
2023-05-21T07:15:35.622Z,97551.78
2023-05-21T07:18:03.568Z,97550.56
2023-05-21T07:20:30.881Z,97557.00
2023-05-21T07:23:01.900Z,97546.19
2023-05-21T07:25:29.050Z,97554.66
2023-05-21T07:27:56.302Z,97535.44
2023-05-21T07:30:24.187Z,97541.81
2023-05-21T07:32:51.392Z,97547.41
2023-05-21T07:35:20.421Z,97539.03
2023-05-21T07:37:48.138Z,97541.06
2023-05-21T07:40:15.447Z,97541.03
2023-05-21T07:42:43.631Z,97545.88
2023-05-21T07:45:12.660Z,97533.47
2023-05-21T07:47:45.617Z,97528.72
2023-05-21T07:50:14.373Z,97533.56
2023-05-21T07:52:42.029Z,97533.56
2023-05-21T07:55:10.129Z,97530.38
2023-05-21T07:57:39.318Z,97536.00
2023-05-21T08:00:16.328Z,97536.84
2023-05-21T08:02:47.920Z,97534.81
2023-05-21T08:05:19.116Z,97544.03
2023-05-21T08:07:46.288Z,97529.19
2023-05-21T08:10:13.569Z,97538.41
2023-05-21T08:12:40.944Z,97538.84
2023-05-21T08:15:09.205Z,97537.63
2023-05-21T08:17:42.035Z,97534.03
2023-05-21T08:20:10.386Z,97541.66
2023-05-21T08:22:38.966Z,97542.50
2023-05-21T08:25:07.991Z,97538.91
2023-05-21T08:27:35.182Z,97530.88
2023-05-21T08:30:02.532Z,97538.50
2023-05-21T08:32:31.354Z,97544.94
2023-05-21T08:35:00.602Z,97536.13
2023-05-21T08:38:06.033Z,97537.31
2023-05-21T08:40:47.875Z,97542.50
2023-05-21T08:43:16.871Z,97544.13
2023-05-21T08:45:54.876Z,97549.34
2023-05-21T08:48:24.800Z,97545.75
2023-05-21T08:50:53.962Z,97543.31
2023-05-21T08:53:29.452Z,97535.31
2023-05-21T08:55:57.870Z,97546.13
2023-05-21T08:58:35.101Z,97541.31
2023-05-21T09:01:04.661Z,97536.09
2023-05-21T09:03:32.965Z,97544.94
2023-05-21T09:06:00.812Z,97536.88
2023-05-21T09:08:32.541Z,97532.47
2023-05-21T09:11:08.931Z,97533.66
2023-05-21T09:13:43.609Z,97526.84
2023-05-21T09:16:17.407Z,97537.28
2023-05-21T09:18:45.701Z,97534.44
2023-05-21T09:21:26.532Z,97536.81
2023-05-21T09:23:57.640Z,97539.19
2023-05-21T09:26:25.661Z,97535.97
2023-05-21T09:28:58.140Z,97527.50
2023-05-21T09:31:28.225Z,97533.09
2023-05-21T09:33:58.297Z,97541.06
2023-05-21T09:36:27.100Z,97540.72
2023-05-21T09:38:54.298Z,97531.44
2023-05-21T09:41:31.999Z,97535.78
2023-05-21T09:44:00.912Z,97540.91
2023-05-21T09:46:37.894Z,97547.75
2023-05-21T09:49:04.966Z,97544.19
2023-05-21T09:51:32.964Z,97536.06
2023-05-21T09:54:01.076Z,97541.66
2023-05-21T09:56:32.086Z,97531.41
2023-05-21T09:59:06.822Z,97533.41
2023-05-21T10:01:34.759Z,97524.53
2023-05-21T10:04:06.932Z,97548.63
2023-05-21T10:06:40.425Z,97535.47
2023-05-21T10:09:10.770Z,97534.63
2023-05-21T10:11:39.727Z,97540.34
2023-05-21T10:14:09.231Z,97531.75
2023-05-21T10:16:37.041Z,97534.88
2023-05-21T10:19:05.877Z,97526.47
2023-05-21T10:21:33.470Z,97530.94
2023-05-21T10:24:02.733Z,97535.41
2023-05-21T10:26:30.520Z,97533.31
2023-05-21T10:29:00.753Z,97539.25
2023-05-21T10:31:28.472Z,97525.22
2023-05-21T10:33:56.258Z,97534.06
2023-05-21T10:36:31.622Z,97519.03
2023-05-21T10:39:00.274Z,97520.63
2023-05-21T10:41:28.109Z,97521.06
2023-05-21T10:44:14.275Z,97542.75
2023-05-21T10:46:57.935Z,97521.63
2023-05-21T10:49:38.980Z,97525.25
2023-05-21T10:52:32.733Z,97517.94
2023-05-21T10:55:23.292Z,97523.00
2023-05-21T10:58:00.208Z,97510.66
2023-05-21T11:00:28.170Z,97515.81
2023-05-21T11:02:55.554Z,97508.19
2023-05-21T11:05:42.660Z,97517.97
2023-05-21T11:08:22.793Z,97504.03
2023-05-21T11:10:58.305Z,97510.41
2023-05-21T11:13:31.399Z,97504.00
2023-05-21T11:15:58.636Z,97507.50
2023-05-21T11:18:38.338Z,97507.78
2023-05-21T11:21:06.414Z,97495.88
2023-05-21T11:24:03.288Z,97502.97
2023-05-21T11:27:04.573Z,97499.25
2023-05-21T11:29:42.532Z,97503.94
2023-05-21T11:32:14.995Z,97508.50
2023-05-21T11:34:45.735Z,97493.13
2023-05-21T11:37:20.690Z,97498.69
2023-05-21T11:39:49.841Z,97501.06
2023-05-21T11:42:34.871Z,97507.38
2023-05-21T11:45:03.882Z,97484.81
2023-05-21T11:47:32.250Z,97495.38
2023-05-21T11:50:04.053Z,97503.78
2023-05-21T11:52:33.041Z,97498.03
2023-05-21T11:55:00.414Z,97487.59
2023-05-21T11:57:31.011Z,97495.94
2023-05-21T11:59:59.888Z,97505.56
2023-05-21T12:02:31.324Z,97493.81
2023-05-21T12:05:00.421Z,97484.50
2023-05-21T12:07:29.679Z,97493.41
2023-05-21T12:09:57.600Z,97499.69
2023-05-21T12:12:26.585Z,97484.31
2023-05-21T12:14:55.626Z,97488.72
2023-05-21T12:17:24.113Z,97485.72
2023-05-21T12:19:53.101Z,97503.91
2023-05-21T12:22:21.263Z,97497.59
2023-05-21T12:24:48.779Z,97497.75
2023-05-21T12:27:16.698Z,97491.84
2023-05-21T12:29:45.636Z,97486.94
2023-05-21T12:32:14.719Z,97496.00
2023-05-21T12:34:54.346Z,97480.53
2023-05-21T12:37:22.936Z,97486.09
2023-05-21T12:39:51.894Z,97504.53
2023-05-21T12:42:27.406Z,97496.44
2023-05-21T12:44:54.616Z,97490.16
2023-05-21T12:47:26.495Z,97480.75
2023-05-21T12:49:58.011Z,97501.72
2023-05-21T12:52:27.123Z,97490.38
2023-05-21T12:54:56.634Z,97488.19
2023-05-21T12:57:27.913Z,97485.69
2023-05-21T12:59:59.197Z,97490.53
2023-05-21T13:02:28.487Z,97481.56
2023-05-21T13:05:00.378Z,97485.63
2023-05-21T13:07:31.325Z,97485.53
2023-05-21T13:09:59.337Z,97479.34
2023-05-21T13:12:28.562Z,97475.47
2023-05-21T13:15:00.830Z,97479.38
2023-05-21T13:17:28.878Z,97481.81
2023-05-21T13:20:18.148Z,97465.56
2023-05-21T13:22:50.532Z,97467.56
2023-05-21T13:25:21.212Z,97470.13
2023-05-21T13:27:50.621Z,97466.94
2023-05-21T13:30:18.541Z,97463.09
2023-05-21T13:32:45.941Z,97462.63
2023-05-21T13:35:15.095Z,97457.19
2023-05-21T13:37:42.357Z,97455.28
2023-05-21T13:40:11.397Z,97464.91
2023-05-21T13:42:39.116Z,97454.41
2023-05-21T13:45:09.650Z,97456.22
2023-05-21T13:47:39.980Z,97448.78
2023-05-21T13:50:09.028Z,97438.97
2023-05-21T13:52:36.690Z,97444.50
2023-05-21T13:55:04.487Z,97454.97
2023-05-21T13:57:32.043Z,97451.41
2023-05-21T13:59:59.821Z,97442.47
2023-05-21T14:02:27.175Z,97441.31
2023-05-21T14:04:54.371Z,97441.69
2023-05-21T14:07:22.090Z,97447.72
2023-05-21T14:09:49.772Z,97442.97
2023-05-21T14:12:17.130Z,97445.47
2023-05-21T14:14:44.420Z,97443.09
2023-05-21T14:17:11.683Z,97452.25
2023-05-21T14:19:38.823Z,97443.59
2023-05-21T14:22:06.012Z,97440.69
2023-05-21T14:24:33.222Z,97435.78
2023-05-21T14:27:00.418Z,97436.56
2023-05-21T14:29:27.602Z,97443.91
2023-05-21T14:31:54.830Z,97437.28
2023-05-21T14:34:21.973Z,97446.66
2023-05-21T14:36:49.287Z,97439.47
2023-05-21T14:39:17.109Z,97446.69
2023-05-21T14:41:44.259Z,97433.94
2023-05-21T14:44:11.385Z,97436.31
2023-05-21T14:46:39.757Z,97437.88
2023-05-21T14:49:06.959Z,97426.00
2023-05-21T14:51:34.094Z,97420.88
2023-05-21T14:54:01.294Z,97433.03
2023-05-21T14:56:28.457Z,97426.00
2023-05-21T14:58:56.243Z,97434.63
2023-05-21T15:01:23.628Z,97433.00
2023-05-21T15:03:51.093Z,97440.88
2023-05-21T15:06:18.674Z,97424.69
2023-05-21T15:08:45.869Z,97431.78
2023-05-21T15:11:13.108Z,97428.97
2023-05-21T15:13:40.366Z,97422.31
2023-05-21T15:16:07.578Z,97422.56
2023-05-21T15:18:34.788Z,97417.16
2023-05-21T15:21:02.022Z,97420.75
2023-05-21T15:23:29.300Z,97428.28
2023-05-21T15:25:56.454Z,97422.94
2023-05-21T15:28:23.580Z,97416.03
2023-05-21T15:30:50.696Z,97415.22
2023-05-21T15:33:18.045Z,97408.66
2023-05-21T15:35:45.748Z,97419.72
2023-05-21T15:38:13.088Z,97414.94
2023-05-21T15:40:42.964Z,97424.16
2023-05-21T15:43:10.194Z,97417.25
2023-05-21T15:45:38.476Z,97415.84
2023-05-21T15:48:06.473Z,97410.16
2023-05-21T15:50:35.457Z,97406.78
2023-05-21T15:53:04.294Z,97405.81
2023-05-21T15:55:34.750Z,97413.50
2023-05-21T15:58:03.138Z,97408.94
2023-05-21T16:00:30.327Z,97415.28
2023-05-21T16:02:57.536Z,97408.19
2023-05-21T16:05:25.665Z,97400.78
2023-05-21T16:07:52.926Z,97398.28
2023-05-21T16:10:21.199Z,97389.66
2023-05-21T16:12:48.402Z,97395.91
2023-05-21T16:15:15.630Z,97395.38
2023-05-21T16:17:42.761Z,97394.88
2023-05-21T16:20:10.315Z,97387.00
2023-05-21T16:22:37.537Z,97400.16
2023-05-21T16:25:05.028Z,97384.34
2023-05-21T16:27:32.233Z,97395.31
2023-05-21T16:29:59.499Z,97382.66
2023-05-21T16:32:28.372Z,97397.09
2023-05-21T16:34:55.819Z,97383.97
2023-05-21T16:37:23.024Z,97390.81
2023-05-21T16:39:50.251Z,97388.41
2023-05-21T16:42:17.403Z,97384.59
2023-05-21T16:44:44.625Z,97396.94
2023-05-21T16:47:11.799Z,97393.41
2023-05-21T16:49:38.912Z,97391.81
2023-05-21T16:52:06.215Z,97401.59
2023-05-21T16:54:33.831Z,97397.00
2023-05-21T16:57:01.024Z,97395.13
2023-05-21T16:59:28.651Z,97390.63
2023-05-21T17:01:55.876Z,97393.09
2023-05-21T17:04:23.070Z,97410.56
2023-05-21T17:06:50.177Z,97400.94
2023-05-21T17:09:18.825Z,97401.44
2023-05-21T17:11:46.308Z,97394.13
2023-05-21T17:14:17.550Z,97395.06
2023-05-21T17:16:50.874Z,97401.66
2023-05-21T17:19:19.391Z,97396.38
2023-05-21T17:21:46.516Z,97394.09
2023-05-21T17:24:13.663Z,97399.44
2023-05-21T17:26:40.802Z,97404.41
2023-05-21T17:29:07.941Z,97409.03
2023-05-21T17:31:35.158Z,97402.03
2023-05-21T17:34:02.377Z,97401.22
2023-05-21T17:36:29.543Z,97413.47
2023-05-21T17:38:56.705Z,97410.81
2023-05-21T17:41:25.343Z,97410.75
2023-05-21T17:43:52.542Z,97411.06
2023-05-21T17:46:19.730Z,97415.66
2023-05-21T17:48:47.049Z,97411.41
2023-05-21T17:51:14.301Z,97426.00
2023-05-21T17:53:41.523Z,97418.06
2023-05-21T17:56:11.162Z,97420.94
2023-05-21T17:58:38.304Z,97425.31
2023-05-21T18:01:05.605Z,97422.25
2023-05-21T18:03:32.926Z,97418.84
2023-05-21T18:06:00.166Z,97422.88
2023-05-21T18:08:27.374Z,97430.25
2023-05-21T18:10:54.518Z,97430.31
2023-05-21T18:13:21.688Z,97438.38
2023-05-21T18:15:48.807Z,97439.63
2023-05-21T18:18:19.825Z,97440.03
2023-05-21T18:20:48.130Z,97447.47
2023-05-21T18:23:15.432Z,97442.72
2023-05-21T18:25:42.878Z,97446.41
2023-05-21T18:28:10.069Z,97441.69
2023-05-21T18:30:37.389Z,97436.81
2023-05-21T18:33:04.758Z,97444.97
2023-05-21T18:35:32.009Z,97441.31
2023-05-21T18:37:59.126Z,97447.03
2023-05-21T18:40:30.488Z,97440.75
2023-05-21T18:42:57.880Z,97450.03
2023-05-21T18:45:25.041Z,97441.19
2023-05-21T18:47:52.301Z,97451.22
2023-05-21T18:50:20.374Z,97450.34
2023-05-21T18:52:47.636Z,97452.03
2023-05-21T18:55:14.871Z,97458.13
2023-05-21T18:57:42.091Z,97454.09
2023-05-21T19:00:09.797Z,97453.31
2023-05-21T19:02:37.285Z,97452.94
2023-05-21T19:05:04.942Z,97457.38
2023-05-21T19:07:32.307Z,97458.94
2023-05-21T19:10:00.281Z,97456.53
2023-05-21T19:12:29.325Z,97468.63
2023-05-21T19:14:56.764Z,97458.97
2023-05-21T19:17:23.999Z,97468.19
2023-05-21T19:19:55.673Z,97477.88
2023-05-21T19:22:24.088Z,97478.25
2023-05-21T19:24:51.729Z,97483.88
2023-05-21T19:27:19.237Z,97475.06
2023-05-21T19:29:46.399Z,97480.69
2023-05-21T19:32:14.558Z,97485.13
2023-05-21T19:34:42.278Z,97479.50
2023-05-21T19:37:09.584Z,97494.72
2023-05-21T19:39:38.241Z,97499.53
2023-05-21T19:42:06.361Z,97487.94
2023-05-21T19:44:33.869Z,97488.31
2023-05-21T19:47:01.863Z,97481.88
2023-05-21T19:49:29.037Z,97485.09
2023-05-21T19:51:56.466Z,97494.72
2023-05-21T19:54:24.239Z,97488.72
2023-05-21T19:56:51.802Z,97496.31
2023-05-21T19:59:19.020Z,97499.94
2023-05-21T20:01:46.304Z,97500.34
2023-05-21T20:04:13.877Z,97491.09
2023-05-21T20:06:41.052Z,97494.31
2023-05-21T20:09:08.751Z,97499.13
2023-05-21T20:11:36.080Z,97498.72
2023-05-21T20:14:04.316Z,97486.66
2023-05-21T20:16:31.536Z,97500.66
2023-05-21T20:19:01.517Z,97490.66
2023-05-21T20:21:29.573Z,97490.25
2023-05-21T20:23:56.886Z,97491.47
2023-05-21T20:26:25.960Z,97492.69
2023-05-21T20:28:53.374Z,97490.25
2023-05-21T20:31:21.757Z,97493.44
2023-05-21T20:33:50.363Z,97495.06
2023-05-21T20:36:17.787Z,97486.22
2023-05-21T20:38:45.567Z,97481.03
2023-05-21T20:41:13.609Z,97486.63
2023-05-21T20:43:40.761Z,97488.56
2023-05-21T20:46:08.048Z,97494.94
2023-05-21T20:48:35.508Z,97482.94
2023-05-21T20:51:04.407Z,97484.53
2023-05-21T20:53:31.903Z,97486.91
2023-05-21T20:56:01.382Z,97488.53
2023-05-21T20:58:28.733Z,97493.34
2023-05-21T21:00:55.955Z,97491.72
2023-05-21T21:03:23.617Z,97480.09
2023-05-21T21:05:52.761Z,97493.75
2023-05-21T21:08:19.900Z,97485.31
2023-05-21T21:10:47.192Z,97488.50
2023-05-21T21:13:14.702Z,97494.44
2023-05-21T21:15:43.679Z,97492.88
2023-05-21T21:18:12.399Z,97503.00
2023-05-21T21:20:41.264Z,97494.47
2023-05-21T21:23:08.950Z,97495.22
2023-05-21T21:25:36.378Z,97493.25
2023-05-21T21:28:03.649Z,97493.69
2023-05-21T21:30:31.028Z,97494.91
2023-05-21T21:32:58.239Z,97491.69
2023-05-21T21:35:25.572Z,97486.44
2023-05-21T21:37:52.833Z,97495.16
2023-05-21T21:40:19.986Z,97488.44
2023-05-21T21:42:47.246Z,97506.44
2023-05-21T21:45:14.426Z,97499.25
2023-05-21T21:47:41.579Z,97487.63
2023-05-21T21:50:09.254Z,97494.09
2023-05-21T21:52:40.074Z,97492.06
2023-05-21T21:55:09.705Z,97496.47
2023-05-21T21:57:38.788Z,97492.41
2023-05-21T22:00:11.536Z,97496.44
2023-05-21T22:02:40.112Z,97488.41
2023-05-21T22:05:08.665Z,97492.00
2023-05-21T22:07:38.626Z,97498.03
2023-05-21T22:10:06.399Z,97500.84
2023-05-21T22:12:33.997Z,97497.94
2023-05-21T22:15:05.639Z,97501.91
2023-05-21T22:17:33.021Z,97497.53
2023-05-21T22:20:01.013Z,97495.44
2023-05-21T22:22:28.197Z,97497.06
2023-05-21T22:24:55.425Z,97495.88
2023-05-21T22:27:22.576Z,97495.84
2023-05-21T22:29:49.898Z,97486.22
2023-05-21T22:32:17.172Z,97493.13
2023-05-21T22:34:44.425Z,97491.91
2023-05-21T22:37:12.197Z,97489.53
2023-05-21T22:39:39.373Z,97493.13
2023-05-21T22:42:06.624Z,97485.09
2023-05-21T22:44:33.807Z,97494.66
2023-05-21T22:47:01.220Z,97487.03
2023-05-21T22:49:30.272Z,97489.72
2023-05-21T22:52:04.953Z,97484.09
2023-05-21T22:54:32.856Z,97483.72
2023-05-21T22:57:01.392Z,97478.16
2023-05-21T22:59:29.023Z,97481.66
2023-05-21T23:01:56.207Z,97482.50
2023-05-21T23:04:35.716Z,97479.72
2023-05-21T23:07:07.528Z,97480.75
2023-05-21T23:09:34.661Z,97479.25
2023-05-21T23:12:02.119Z,97480.84
2023-05-21T23:14:29.260Z,97481.66
2023-05-21T23:17:01.627Z,97475.25
2023-05-21T23:19:29.342Z,97480.41
2023-05-21T23:21:56.914Z,97477.59
2023-05-21T23:24:24.091Z,97469.88
2023-05-21T23:26:52.080Z,97477.09
2023-05-21T23:29:19.235Z,97475.22
2023-05-21T23:31:46.740Z,97473.09
2023-05-21T23:34:14.146Z,97474.31
2023-05-21T23:36:41.365Z,97476.31
2023-05-21T23:39:09.248Z,97472.81
2023-05-21T23:41:37.341Z,97470.28
2023-05-21T23:44:04.570Z,97473.91
2023-05-21T23:46:31.845Z,97479.53
2023-05-21T23:48:58.982Z,97475.56
2023-05-21T23:51:26.300Z,97482.75
2023-05-21T23:53:54.013Z,97483.50
2023-05-21T23:56:21.229Z,97487.56
2023-05-21T23:58:48.441Z,97485.94
